sensor_id;sensor_type;location;lat;lon;timestamp;P1;durP1;ratioP1;P2;durP2;ratioP2
60233;SDS011;49514;43.538;-5.708;2022-12-29T00:01:37;30.95;;;6.53;;
60233;SDS011;49514;43.538;-5.708;2022-12-29T00:04:04;24.23;;;4.57;;
60233;SDS011;49514;43.538;-5.708;2022-12-29T00:06:31;21.85;;;4.05;;
60233;SDS011;49514;43.538;-5.708;2022-12-29T00:08:58;27.33;;;7.15;;
60233;SDS011;49514;43.538;-5.708;2022-12-29T00:11:26;22.52;;;5.40;;
60233;SDS011;49514;43.538;-5.708;2022-12-29T00:13:53;17.92;;;5.07;;
60233;SDS011;49514;43.538;-5.708;2022-12-29T00:16:40;18.70;;;5.22;;
60233;SDS011;49514;43.538;-5.708;2022-12-29T00:19:09;20.40;;;5.55;;
60233;SDS011;49514;43.538;-5.708;2022-12-29T00:21:57;18.30;;;4.13;;
60233;SDS011;49514;43.538;-5.708;2022-12-29T00:24:43;9.38;;;3.00;;
60233;SDS011;49514;43.538;-5.708;2022-12-29T00:27:19;9.10;;;2.38;;
60233;SDS011;49514;43.538;-5.708;2022-12-29T00:30:08;9.13;;;2.30;;
60233;SDS011;49514;43.538;-5.708;2022-12-29T00:32:55;6.85;;;2.35;;
60233;SDS011;49514;43.538;-5.708;2022-12-29T00:35:59;7.40;;;2.78;;
60233;SDS011;49514;43.538;-5.708;2022-12-29T00:38:29;11.05;;;3.20;;
60233;SDS011;49514;43.538;-5.708;2022-12-29T00:41:17;10.52;;;3.53;;
60233;SDS011;49514;43.538;-5.708;2022-12-29T00:44:02;7.82;;;3.65;;
60233;SDS011;49514;43.538;-5.708;2022-12-29T00:46:33;8.32;;;3.58;;
60233;SDS011;49514;43.538;-5.708;2022-12-29T00:49:01;8.57;;;3.27;;
60233;SDS011;49514;43.538;-5.708;2022-12-29T00:51:47;9.77;;;2.75;;
60233;SDS011;49514;43.538;-5.708;2022-12-29T00:54:14;9.25;;;2.25;;
60233;SDS011;49514;43.538;-5.708;2022-12-29T00:56:42;9.40;;;2.60;;
60233;SDS011;49514;43.538;-5.708;2022-12-29T00:59:09;7.80;;;2.20;;
60233;SDS011;49514;43.538;-5.708;2022-12-29T01:01:37;8.18;;;2.30;;
60233;SDS011;49514;43.538;-5.708;2022-12-29T01:04:04;9.38;;;2.58;;
60233;SDS011;49514;43.538;-5.708;2022-12-29T01:06:31;7.80;;;2.40;;
60233;SDS011;49514;43.538;-5.708;2022-12-29T01:08:59;5.70;;;1.93;;
60233;SDS011;49514;43.538;-5.708;2022-12-29T01:11:45;7.10;;;2.23;;
60233;SDS011;49514;43.538;-5.708;2022-12-29T01:14:11;8.60;;;2.25;;
60233;SDS011;49514;43.538;-5.708;2022-12-29T01:16:38;9.07;;;2.35;;
60233;SDS011;49514;43.538;-5.708;2022-12-29T01:19:04;11.60;;;2.45;;
60233;SDS011;49514;43.538;-5.708;2022-12-29T01:21:32;10.05;;;2.80;;
60233;SDS011;49514;43.538;-5.708;2022-12-29T01:23:58;9.33;;;2.67;;
60233;SDS011;49514;43.538;-5.708;2022-12-29T01:26:25;8.02;;;2.65;;
60233;SDS011;49514;43.538;-5.708;2022-12-29T01:28:52;9.65;;;2.72;;
60233;SDS011;49514;43.538;-5.708;2022-12-29T01:31:18;12.07;;;2.60;;
60233;SDS011;49514;43.538;-5.708;2022-12-29T01:33:45;12.40;;;2.80;;
60233;SDS011;49514;43.538;-5.708;2022-12-29T01:36:13;8.82;;;2.50;;
60233;SDS011;49514;43.538;-5.708;2022-12-29T01:38:41;6.78;;;2.70;;
60233;SDS011;49514;43.538;-5.708;2022-12-29T01:41:09;7.10;;;2.50;;
60233;SDS011;49514;43.538;-5.708;2022-12-29T01:43:44;8.57;;;2.58;;
60233;SDS011;49514;43.538;-5.708;2022-12-29T01:46:25;10.07;;;2.83;;
60233;SDS011;49514;43.538;-5.708;2022-12-29T01:51:57;6.15;;;2.40;;
60233;SDS011;49514;43.538;-5.708;2022-12-29T01:54:28;7.50;;;2.50;;
60233;SDS011;49514;43.538;-5.708;2022-12-29T01:57:10;7.50;;;2.45;;
60233;SDS011;49514;43.538;-5.708;2022-12-29T01:59:41;7.15;;;2.17;;
60233;SDS011;49514;43.538;-5.708;2022-12-29T02:02:14;5.50;;;1.95;;
60233;SDS011;49514;43.538;-5.708;2022-12-29T02:04:42;10.70;;;2.35;;
60233;SDS011;49514;43.538;-5.708;2022-12-29T02:07:18;8.82;;;2.60;;
60233;SDS011;49514;43.538;-5.708;2022-12-29T02:09:47;8.35;;;2.10;;
60233;SDS011;49514;43.538;-5.708;2022-12-29T02:12:16;9.07;;;2.23;;
60233;SDS011;49514;43.538;-5.708;2022-12-29T02:14:45;15.05;;;2.40;;
60233;SDS011;49514;43.538;-5.708;2022-12-29T02:37:01;11.05;;;2.45;;
60233;SDS011;49514;43.538;-5.708;2022-12-29T02:39:39;14.63;;;2.30;;
60233;SDS011;49514;43.538;-5.708;2022-12-29T02:44:49;8.63;;;2.00;;
60233;SDS011;49514;43.538;-5.708;2022-12-29T02:52:35;8.57;;;1.70;;
60233;SDS011;49514;43.538;-5.708;2022-12-29T02:55:06;7.35;;;1.58;;
60233;SDS011;49514;43.538;-5.708;2022-12-29T02:57:34;6.82;;;1.40;;
60233;SDS011;49514;43.538;-5.708;2022-12-29T03:09:05;7.45;;;1.50;;
60233;SDS011;49514;43.538;-5.708;2022-12-29T03:12:00;10.73;;;1.83;;
60233;SDS011;49514;43.538;-5.708;2022-12-29T03:15:28;8.23;;;1.65;;
60233;SDS011;49514;43.538;-5.708;2022-12-29T03:17:56;7.30;;;1.50;;
60233;SDS011;49514;43.538;-5.708;2022-12-29T03:20:36;9.55;;;1.85;;
60233;SDS011;49514;43.538;-5.708;2022-12-29T03:23:08;8.13;;;1.60;;
60233;SDS011;49514;43.538;-5.708;2022-12-29T03:25:37;12.10;;;2.03;;
60233;SDS011;49514;43.538;-5.708;2022-12-29T03:28:12;8.98;;;2.00;;
60233;SDS011;49514;43.538;-5.708;2022-12-29T03:30:46;8.05;;;1.50;;
60233;SDS011;49514;43.538;-5.708;2022-12-29T03:33:20;6.50;;;1.20;;
60233;SDS011;49514;43.538;-5.708;2022-12-29T03:35:51;8.73;;;1.70;;
60233;SDS011;49514;43.538;-5.708;2022-12-29T03:41:34;6.37;;;1.30;;
60233;SDS011;49514;43.538;-5.708;2022-12-29T03:44:05;5.72;;;1.13;;
60233;SDS011;49514;43.538;-5.708;2022-12-29T03:46:33;3.88;;;0.93;;
60233;SDS011;49514;43.538;-5.708;2022-12-29T03:49:00;3.70;;;0.80;;
60233;SDS011;49514;43.538;-5.708;2022-12-29T03:51:27;4.72;;;1.00;;
60233;SDS011;49514;43.538;-5.708;2022-12-29T03:53:54;3.15;;;0.90;;
60233;SDS011;49514;43.538;-5.708;2022-12-29T03:56:21;3.78;;;1.00;;
60233;SDS011;49514;43.538;-5.708;2022-12-29T03:58:49;1.90;;;0.50;;
60233;SDS011;49514;43.538;-5.708;2022-12-29T04:01:21;6.07;;;0.80;;
60233;SDS011;49514;43.538;-5.708;2022-12-29T04:03:47;1.83;;;0.63;;
60233;SDS011;49514;43.538;-5.708;2022-12-29T04:06:15;2.90;;;0.80;;
60233;SDS011;49514;43.538;-5.708;2022-12-29T04:09:04;0.87;;;0.57;;
60233;SDS011;49514;43.538;-5.708;2022-12-29T04:11:37;3.00;;;0.77;;
60233;SDS011;49514;43.538;-5.708;2022-12-29T04:14:03;4.05;;;0.80;;
60233;SDS011;49514;43.538;-5.708;2022-12-29T04:16:32;1.25;;;0.70;;
60233;SDS011;49514;43.538;-5.708;2022-12-29T04:19:03;1.65;;;0.55;;
60233;SDS011;49514;43.538;-5.708;2022-12-29T04:21:29;2.33;;;0.70;;
60233;SDS011;49514;43.538;-5.708;2022-12-29T04:23:57;1.65;;;0.50;;
60233;SDS011;49514;43.538;-5.708;2022-12-29T04:26:24;2.78;;;0.70;;
60233;SDS011;49514;43.538;-5.708;2022-12-29T04:29:00;3.28;;;0.70;;
60233;SDS011;49514;43.538;-5.708;2022-12-29T04:31:58;3.85;;;0.80;;
60233;SDS011;49514;43.538;-5.708;2022-12-29T04:34:24;2.75;;;0.65;;
60233;SDS011;49514;43.538;-5.708;2022-12-29T04:36:51;2.20;;;0.50;;
60233;SDS011;49514;43.538;-5.708;2022-12-29T04:39:18;2.75;;;0.77;;
60233;SDS011;49514;43.538;-5.708;2022-12-29T04:41:45;7.18;;;1.30;;
60233;SDS011;49514;43.538;-5.708;2022-12-29T04:44:17;2.90;;;0.80;;
60233;SDS011;49514;43.538;-5.708;2022-12-29T04:46:46;2.50;;;0.70;;
60233;SDS011;49514;43.538;-5.708;2022-12-29T04:49:36;1.70;;;0.55;;
60233;SDS011;49514;43.538;-5.708;2022-12-29T04:52:21;2.80;;;0.60;;
60233;SDS011;49514;43.538;-5.708;2022-12-29T04:54:48;1.92;;;0.60;;
60233;SDS011;49514;43.538;-5.708;2022-12-29T04:57:18;2.35;;;0.70;;
60233;SDS011;49514;43.538;-5.708;2022-12-29T04:59:50;2.17;;;0.70;;
60233;SDS011;49514;43.538;-5.708;2022-12-29T05:02:17;2.03;;;0.80;;
60233;SDS011;49514;43.538;-5.708;2022-12-29T05:04:45;2.93;;;0.80;;
60233;SDS011;49514;43.538;-5.708;2022-12-29T05:07:12;3.63;;;0.80;;
60233;SDS011;49514;43.538;-5.708;2022-12-29T05:09:39;6.53;;;1.17;;
60233;SDS011;49514;43.538;-5.708;2022-12-29T05:12:06;4.38;;;1.20;;
60233;SDS011;49514;43.538;-5.708;2022-12-29T05:14:35;4.30;;;1.10;;
60233;SDS011;49514;43.538;-5.708;2022-12-29T05:17:02;3.97;;;1.00;;
60233;SDS011;49514;43.538;-5.708;2022-12-29T05:19:29;2.93;;;0.90;;
60233;SDS011;49514;43.538;-5.708;2022-12-29T05:21:57;3.08;;;1.00;;
60233;SDS011;49514;43.538;-5.708;2022-12-29T05:24:23;4.35;;;1.33;;
60233;SDS011;49514;43.538;-5.708;2022-12-29T05:26:53;3.70;;;1.20;;
60233;SDS011;49514;43.538;-5.708;2022-12-29T05:29:43;3.33;;;1.30;;
60233;SDS011;49514;43.538;-5.708;2022-12-29T05:32:10;5.40;;;1.10;;
60233;SDS011;49514;43.538;-5.708;2022-12-29T05:34:36;2.38;;;1.10;;
60233;SDS011;49514;43.538;-5.708;2022-12-29T05:37:04;6.43;;;1.30;;
60233;SDS011;49514;43.538;-5.708;2022-12-29T05:39:31;4.80;;;1.42;;
60233;SDS011;49514;43.538;-5.708;2022-12-29T05:42:00;2.90;;;1.10;;
60233;SDS011;49514;43.538;-5.708;2022-12-29T05:44:36;3.65;;;1.20;;
60233;SDS011;49514;43.538;-5.708;2022-12-29T05:47:12;3.38;;;1.40;;
60233;SDS011;49514;43.538;-5.708;2022-12-29T05:50:11;3.88;;;1.30;;
60233;SDS011;49514;43.538;-5.708;2022-12-29T05:53:07;4.85;;;1.40;;
60233;SDS011;49514;43.538;-5.708;2022-12-29T05:55:36;4.57;;;1.50;;
60233;SDS011;49514;43.538;-5.708;2022-12-29T05:58:03;3.83;;;1.40;;
60233;SDS011;49514;43.538;-5.708;2022-12-29T06:00:29;4.93;;;1.65;;
60233;SDS011;49514;43.538;-5.708;2022-12-29T06:02:57;4.23;;;1.40;;
60233;SDS011;49514;43.538;-5.708;2022-12-29T06:05:23;4.43;;;1.42;;
60233;SDS011;49514;43.538;-5.708;2022-12-29T06:07:50;4.20;;;1.88;;
60233;SDS011;49514;43.538;-5.708;2022-12-29T06:10:17;3.70;;;1.40;;
60233;SDS011;49514;43.538;-5.708;2022-12-29T06:13:01;5.45;;;1.67;;
60233;SDS011;49514;43.538;-5.708;2022-12-29T06:15:34;6.25;;;1.80;;
60233;SDS011;49514;43.538;-5.708;2022-12-29T06:18:02;5.70;;;1.83;;
60233;SDS011;49514;43.538;-5.708;2022-12-29T06:20:28;4.03;;;1.70;;
60233;SDS011;49514;43.538;-5.708;2022-12-29T06:22:55;4.53;;;1.70;;
60233;SDS011;49514;43.538;-5.708;2022-12-29T06:25:22;4.63;;;1.92;;
60233;SDS011;49514;43.538;-5.708;2022-12-29T06:27:50;9.98;;;3.25;;
60233;SDS011;49514;43.538;-5.708;2022-12-29T06:30:16;8.18;;;3.03;;
60233;SDS011;49514;43.538;-5.708;2022-12-29T06:32:43;8.25;;;2.88;;
60233;SDS011;49514;43.538;-5.708;2022-12-29T06:35:12;9.93;;;3.47;;
60233;SDS011;49514;43.538;-5.708;2022-12-29T06:37:46;10.38;;;4.10;;
60233;SDS011;49514;43.538;-5.708;2022-12-29T06:40:13;10.80;;;4.17;;
60233;SDS011;49514;43.538;-5.708;2022-12-29T06:42:58;9.75;;;3.38;;
60233;SDS011;49514;43.538;-5.708;2022-12-29T06:45:45;25.13;;;5.80;;
60233;SDS011;49514;43.538;-5.708;2022-12-29T06:48:12;16.50;;;5.70;;
60233;SDS011;49514;43.538;-5.708;2022-12-29T06:50:39;13.23;;;4.90;;
60233;SDS011;49514;43.538;-5.708;2022-12-29T06:53:06;11.00;;;5.07;;
60233;SDS011;49514;43.538;-5.708;2022-12-29T06:55:33;14.47;;;5.50;;
60233;SDS011;49514;43.538;-5.708;2022-12-29T06:57:59;13.80;;;5.13;;
60233;SDS011;49514;43.538;-5.708;2022-12-29T07:00:27;16.40;;;5.60;;
60233;SDS011;49514;43.538;-5.708;2022-12-29T07:02:54;13.23;;;5.07;;
60233;SDS011;49514;43.538;-5.708;2022-12-29T07:05:24;12.88;;;5.25;;
60233;SDS011;49514;43.538;-5.708;2022-12-29T07:07:53;12.88;;;4.40;;
60233;SDS011;49514;43.538;-5.708;2022-12-29T07:10:21;11.43;;;2.90;;
60233;SDS011;49514;43.538;-5.708;2022-12-29T07:12:48;8.93;;;1.90;;
60233;SDS011;49514;43.538;-5.708;2022-12-29T07:15:15;8.45;;;1.58;;
60233;SDS011;49514;43.538;-5.708;2022-12-29T07:17:42;11.07;;;1.70;;
60233;SDS011;49514;43.538;-5.708;2022-12-29T07:20:09;9.77;;;1.50;;
60233;SDS011;49514;43.538;-5.708;2022-12-29T07:22:36;9.27;;;2.00;;
60233;SDS011;49514;43.538;-5.708;2022-12-29T07:25:03;7.93;;;1.52;;
60233;SDS011;49514;43.538;-5.708;2022-12-29T07:27:29;8.97;;;1.80;;
60233;SDS011;49514;43.538;-5.708;2022-12-29T07:29:56;10.05;;;1.80;;
60233;SDS011;49514;43.538;-5.708;2022-12-29T07:32:23;8.27;;;1.40;;
60233;SDS011;49514;43.538;-5.708;2022-12-29T07:34:50;7.75;;;1.48;;
60233;SDS011;49514;43.538;-5.708;2022-12-29T07:37:16;7.90;;;1.45;;
60233;SDS011;49514;43.538;-5.708;2022-12-29T07:39:44;9.00;;;1.33;;
60233;SDS011;49514;43.538;-5.708;2022-12-29T07:42:10;10.63;;;1.75;;
60233;SDS011;49514;43.538;-5.708;2022-12-29T07:44:41;6.03;;;1.05;;
60233;SDS011;49514;43.538;-5.708;2022-12-29T07:47:16;7.30;;;1.27;;
60233;SDS011;49514;43.538;-5.708;2022-12-29T07:49:43;8.23;;;1.57;;
60233;SDS011;49514;43.538;-5.708;2022-12-29T07:52:10;8.48;;;1.58;;
60233;SDS011;49514;43.538;-5.708;2022-12-29T07:54:36;5.75;;;1.20;;
60233;SDS011;49514;43.538;-5.708;2022-12-29T07:57:04;5.10;;;0.90;;
60233;SDS011;49514;43.538;-5.708;2022-12-29T07:59:31;4.95;;;0.80;;
60233;SDS011;49514;43.538;-5.708;2022-12-29T08:01:58;1.90;;;0.52;;
60233;SDS011;49514;43.538;-5.708;2022-12-29T08:04:25;2.95;;;0.50;;
60233;SDS011;49514;43.538;-5.708;2022-12-29T08:06:51;1.95;;;0.30;;
60233;SDS011;49514;43.538;-5.708;2022-12-29T08:09:18;4.05;;;0.70;;
60233;SDS011;49514;43.538;-5.708;2022-12-29T08:11:45;2.42;;;0.40;;
60233;SDS011;49514;43.538;-5.708;2022-12-29T08:14:12;2.45;;;0.60;;
60233;SDS011;49514;43.538;-5.708;2022-12-29T08:16:39;3.03;;;0.50;;
60233;SDS011;49514;43.538;-5.708;2022-12-29T08:19:06;1.30;;;0.47;;
60233;SDS011;49514;43.538;-5.708;2022-12-29T08:21:32;2.30;;;0.40;;
60233;SDS011;49514;43.538;-5.708;2022-12-29T08:23:59;3.83;;;0.70;;
60233;SDS011;49514;43.538;-5.708;2022-12-29T08:26:26;1.80;;;0.30;;
60233;SDS011;49514;43.538;-5.708;2022-12-29T08:28:53;3.53;;;0.60;;
60233;SDS011;49514;43.538;-5.708;2022-12-29T08:31:21;3.70;;;0.63;;
60233;SDS011;49514;43.538;-5.708;2022-12-29T08:33:49;3.53;;;0.60;;
60233;SDS011;49514;43.538;-5.708;2022-12-29T08:36:16;3.03;;;0.65;;
60233;SDS011;49514;43.538;-5.708;2022-12-29T08:38:43;2.80;;;0.50;;
60233;SDS011;49514;43.538;-5.708;2022-12-29T08:41:10;3.55;;;0.68;;
60233;SDS011;49514;43.538;-5.708;2022-12-29T08:43:37;3.55;;;0.70;;
60233;SDS011;49514;43.538;-5.708;2022-12-29T08:46:03;3.30;;;0.70;;
60233;SDS011;49514;43.538;-5.708;2022-12-29T08:48:30;2.72;;;0.70;;
60233;SDS011;49514;43.538;-5.708;2022-12-29T08:50:57;2.77;;;0.60;;
60233;SDS011;49514;43.538;-5.708;2022-12-29T08:53:23;2.30;;;0.55;;
60233;SDS011;49514;43.538;-5.708;2022-12-29T08:55:57;2.47;;;0.70;;
60233;SDS011;49514;43.538;-5.708;2022-12-29T08:58:25;2.60;;;0.60;;
60233;SDS011;49514;43.538;-5.708;2022-12-29T09:00:53;1.13;;;0.57;;
60233;SDS011;49514;43.538;-5.708;2022-12-29T09:03:20;1.25;;;0.55;;
60233;SDS011;49514;43.538;-5.708;2022-12-29T09:05:49;2.08;;;0.80;;
60233;SDS011;49514;43.538;-5.708;2022-12-29T09:08:20;5.22;;;0.85;;
60233;SDS011;49514;43.538;-5.708;2022-12-29T09:10:48;5.35;;;1.05;;
60233;SDS011;49514;43.538;-5.708;2022-12-29T09:13:15;5.22;;;0.90;;
60233;SDS011;49514;43.538;-5.708;2022-12-29T09:15:42;5.80;;;1.40;;
60233;SDS011;49514;43.538;-5.708;2022-12-29T09:18:10;8.43;;;1.40;;
60233;SDS011;49514;43.538;-5.708;2022-12-29T09:20:37;6.78;;;1.30;;
60233;SDS011;49514;43.538;-5.708;2022-12-29T09:23:04;6.97;;;1.20;;
60233;SDS011;49514;43.538;-5.708;2022-12-29T09:25:32;7.25;;;1.48;;
60233;SDS011;49514;43.538;-5.708;2022-12-29T09:27:59;6.75;;;1.60;;
60233;SDS011;49514;43.538;-5.708;2022-12-29T09:30:30;4.67;;;0.83;;
60233;SDS011;49514;43.538;-5.708;2022-12-29T09:32:57;4.22;;;0.80;;
60233;SDS011;49514;43.538;-5.708;2022-12-29T09:35:23;5.53;;;1.13;;
60233;SDS011;49514;43.538;-5.708;2022-12-29T09:37:50;3.37;;;0.80;;
60233;SDS011;49514;43.538;-5.708;2022-12-29T09:40:30;4.05;;;1.20;;
60233;SDS011;49514;43.538;-5.708;2022-12-29T09:48:22;5.07;;;1.40;;
60233;SDS011;49514;43.538;-5.708;2022-12-29T09:50:55;7.68;;;1.50;;
60233;SDS011;49514;43.538;-5.708;2022-12-29T09:56:01;13.88;;;3.33;;
60233;SDS011;49514;43.538;-5.708;2022-12-29T10:01:04;14.70;;;4.40;;
60233;SDS011;49514;43.538;-5.708;2022-12-29T10:03:49;9.82;;;2.25;;
60233;SDS011;49514;43.538;-5.708;2022-12-29T10:06:31;8.57;;;1.83;;
60233;SDS011;49514;43.538;-5.708;2022-12-29T10:25:39;7.25;;;1.30;;
60233;SDS011;49514;43.538;-5.708;2022-12-29T10:28:42;5.38;;;1.05;;
60233;SDS011;49514;43.538;-5.708;2022-12-29T10:31:05;5.32;;;1.10;;
60233;SDS011;49514;43.538;-5.708;2022-12-29T10:33:42;6.35;;;1.15;;
60233;SDS011;49514;43.538;-5.708;2022-12-29T10:36:16;8.43;;;1.10;;
60233;SDS011;49514;43.538;-5.708;2022-12-29T10:41:45;5.38;;;1.23;;
60233;SDS011;49514;43.538;-5.708;2022-12-29T10:44:19;4.75;;;1.10;;
60233;SDS011;49514;43.538;-5.708;2022-12-29T10:46:59;6.47;;;1.30;;
60233;SDS011;49514;43.538;-5.708;2022-12-29T10:49:32;4.50;;;1.23;;
60233;SDS011;49514;43.538;-5.708;2022-12-29T10:52:05;7.05;;;1.70;;
60233;SDS011;49514;43.538;-5.708;2022-12-29T10:54:37;7.53;;;2.20;;
60233;SDS011;49514;43.538;-5.708;2022-12-29T10:57:54;8.40;;;2.10;;
60233;SDS011;49514;43.538;-5.708;2022-12-29T11:00:11;8.40;;;2.70;;
60233;SDS011;49514;43.538;-5.708;2022-12-29T11:08:14;8.52;;;2.63;;
60233;SDS011;49514;43.538;-5.708;2022-12-29T11:11:00;8.50;;;2.85;;
60233;SDS011;49514;43.538;-5.708;2022-12-29T11:13:30;11.10;;;3.40;;
60233;SDS011;49514;43.538;-5.708;2022-12-29T11:15:58;9.03;;;3.30;;
60233;SDS011;49514;43.538;-5.708;2022-12-29T11:18:27;8.33;;;2.70;;
60233;SDS011;49514;43.538;-5.708;2022-12-29T11:21:06;8.57;;;2.50;;
60233;SDS011;49514;43.538;-5.708;2022-12-29T11:23:38;6.93;;;2.10;;
60233;SDS011;49514;43.538;-5.708;2022-12-29T11:26:13;3.85;;;1.50;;
60233;SDS011;49514;43.538;-5.708;2022-12-29T11:31:48;3.88;;;1.52;;
60233;SDS011;49514;43.538;-5.708;2022-12-29T11:36:52;4.85;;;1.50;;
60233;SDS011;49514;43.538;-5.708;2022-12-29T11:39:29;3.38;;;1.30;;
60233;SDS011;49514;43.538;-5.708;2022-12-29T11:42:21;3.80;;;1.60;;
60233;SDS011;49514;43.538;-5.708;2022-12-29T11:44:58;6.30;;;1.95;;
60233;SDS011;49514;43.538;-5.708;2022-12-29T11:47:51;6.32;;;1.75;;
60233;SDS011;49514;43.538;-5.708;2022-12-29T11:50:27;7.87;;;1.80;;
60233;SDS011;49514;43.538;-5.708;2022-12-29T11:53:06;4.03;;;1.53;;
60233;SDS011;49514;43.538;-5.708;2022-12-29T11:55:37;4.72;;;1.40;;
60233;SDS011;49514;43.538;-5.708;2022-12-29T11:58:03;2.53;;;1.13;;
60233;SDS011;49514;43.538;-5.708;2022-12-29T12:00:31;2.40;;;1.20;;
60233;SDS011;49514;43.538;-5.708;2022-12-29T12:05:37;3.50;;;1.00;;
60233;SDS011;49514;43.538;-5.708;2022-12-29T12:08:46;3.08;;;1.10;;
60233;SDS011;49514;43.538;-5.708;2022-12-29T12:14:25;2.70;;;0.90;;
60233;SDS011;49514;43.538;-5.708;2022-12-29T12:17:25;3.33;;;1.20;;
60233;SDS011;49514;43.538;-5.708;2022-12-29T12:20:14;4.10;;;1.35;;
60233;SDS011;49514;43.538;-5.708;2022-12-29T12:25:40;2.92;;;1.20;;
60233;SDS011;49514;43.538;-5.708;2022-12-29T12:28:21;3.03;;;1.08;;
60233;SDS011;49514;43.538;-5.708;2022-12-29T12:30:56;2.75;;;1.10;;
60233;SDS011;49514;43.538;-5.708;2022-12-29T12:33:29;6.05;;;1.40;;
60233;SDS011;49514;43.538;-5.708;2022-12-29T12:38:44;6.03;;;1.23;;
60233;SDS011;49514;43.538;-5.708;2022-12-29T12:44:32;3.73;;;1.20;;
60233;SDS011;49514;43.538;-5.708;2022-12-29T13:04:15;2.57;;;1.03;;
60233;SDS011;49514;43.538;-5.708;2022-12-29T13:20:05;3.00;;;2.00;;
60233;SDS011;49514;43.538;-5.708;2022-12-29T13:22:41;4.93;;;1.63;;
60233;SDS011;49514;43.538;-5.708;2022-12-29T13:25:57;5.68;;;1.55;;
60233;SDS011;49514;43.538;-5.708;2022-12-29T13:28:27;5.57;;;1.30;;
60233;SDS011;49514;43.538;-5.708;2022-12-29T13:31:10;8.57;;;1.20;;
60233;SDS011;49514;43.538;-5.708;2022-12-29T13:36:42;4.07;;;1.40;;
60233;SDS011;49514;43.538;-5.708;2022-12-29T13:42:00;2.42;;;1.20;;
60233;SDS011;49514;43.538;-5.708;2022-12-29T13:44:37;2.87;;;1.30;;
60233;SDS011;49514;43.538;-5.708;2022-12-29T13:49:58;4.60;;;1.40;;
60233;SDS011;49514;43.538;-5.708;2022-12-29T13:58:30;5.10;;;1.70;;
60233;SDS011;49514;43.538;-5.708;2022-12-29T14:01:42;5.60;;;2.10;;
60233;SDS011;49514;43.538;-5.708;2022-12-29T14:04:12;4.28;;;2.20;;
60233;SDS011;49514;43.538;-5.708;2022-12-29T14:06:40;5.50;;;2.20;;
60233;SDS011;49514;43.538;-5.708;2022-12-29T14:12:26;4.75;;;2.17;;
60233;SDS011;49514;43.538;-5.708;2022-12-29T14:18:02;4.50;;;2.10;;
60233;SDS011;49514;43.538;-5.708;2022-12-29T14:20:32;7.50;;;2.20;;
60233;SDS011;49514;43.538;-5.708;2022-12-29T18:57:29;5.57;;;3.67;;
60233;SDS011;49514;43.538;-5.708;2022-12-29T18:59:57;9.85;;;5.32;;
60233;SDS011;49514;43.538;-5.708;2022-12-29T19:02:24;8.75;;;5.10;;
60233;SDS011;49514;43.538;-5.708;2022-12-29T19:04:53;8.98;;;4.50;;
60233;SDS011;49514;43.538;-5.708;2022-12-29T20:28:26;6.30;;;4.20;;
60233;SDS011;49514;43.538;-5.708;2022-12-29T20:30:55;7.85;;;4.70;;
60233;SDS011;49514;43.538;-5.708;2022-12-29T20:33:23;6.85;;;4.32;;
60233;SDS011;49514;43.538;-5.708;2022-12-29T20:35:50;6.70;;;4.40;;
60233;SDS011;49514;43.538;-5.708;2022-12-29T20:38:17;6.45;;;4.50;;
60233;SDS011;49514;43.538;-5.708;2022-12-29T20:40:45;6.25;;;4.40;;
60233;SDS011;49514;43.538;-5.708;2022-12-29T20:43:14;8.70;;;5.85;;
60233;SDS011;49514;43.538;-5.708;2022-12-29T20:45:42;11.93;;;6.22;;
60233;SDS011;49514;43.538;-5.708;2022-12-29T20:48:09;9.63;;;6.13;;
60233;SDS011;49514;43.538;-5.708;2022-12-29T20:50:36;9.70;;;6.30;;
60233;SDS011;49514;43.538;-5.708;2022-12-29T20:53:03;8.75;;;5.72;;
60233;SDS011;49514;43.538;-5.708;2022-12-29T20:55:30;10.52;;;5.53;;
60233;SDS011;49514;43.538;-5.708;2022-12-29T20:57:58;10.25;;;5.20;;
60233;SDS011;49514;43.538;-5.708;2022-12-29T21:00:25;9.95;;;5.40;;
60233;SDS011;49514;43.538;-5.708;2022-12-29T21:02:55;10.27;;;5.60;;
60233;SDS011;49514;43.538;-5.708;2022-12-29T21:05:25;7.60;;;5.85;;
60233;SDS011;49514;43.538;-5.708;2022-12-29T21:07:53;12.02;;;5.25;;
60233;SDS011;49514;43.538;-5.708;2022-12-29T21:10:21;10.32;;;5.47;;
60233;SDS011;49514;43.538;-5.708;2022-12-29T21:12:48;8.93;;;5.75;;
60233;SDS011;49514;43.538;-5.708;2022-12-29T21:15:15;7.30;;;5.18;;
60233;SDS011;49514;43.538;-5.708;2022-12-29T21:17:44;6.47;;;4.50;;
60233;SDS011;49514;43.538;-5.708;2022-12-29T21:20:12;6.18;;;4.65;;
60233;SDS011;49514;43.538;-5.708;2022-12-29T21:22:48;6.00;;;4.13;;
60233;SDS011;49514;43.538;-5.708;2022-12-29T21:25:17;4.35;;;3.60;;
60233;SDS011;49514;43.538;-5.708;2022-12-29T21:27:45;7.60;;;4.13;;
60233;SDS011;49514;43.538;-5.708;2022-12-29T21:30:12;6.85;;;3.47;;
60233;SDS011;49514;43.538;-5.708;2022-12-29T21:32:39;5.75;;;3.60;;
60233;SDS011;49514;43.538;-5.708;2022-12-29T21:35:07;5.97;;;3.00;;
60233;SDS011;49514;43.538;-5.708;2022-12-29T21:37:36;10.68;;;3.85;;
60233;SDS011;49514;43.538;-5.708;2022-12-29T21:40:03;7.72;;;3.20;;
60233;SDS011;49514;43.538;-5.708;2022-12-29T21:42:30;5.65;;;2.72;;
60233;SDS011;49514;43.538;-5.708;2022-12-29T21:44:59;4.72;;;2.30;;
60233;SDS011;49514;43.538;-5.708;2022-12-29T21:47:45;3.28;;;2.40;;
60233;SDS011;49514;43.538;-5.708;2022-12-29T21:50:32;5.43;;;2.72;;
60233;SDS011;49514;43.538;-5.708;2022-12-29T21:53:27;10.00;;;3.20;;
60233;SDS011;49514;43.538;-5.708;2022-12-29T21:56:10;2.95;;;2.00;;
60233;SDS011;49514;43.538;-5.708;2022-12-29T21:58:42;2.95;;;2.20;;
60233;SDS011;49514;43.538;-5.708;2022-12-29T22:01:30;4.22;;;2.08;;
60233;SDS011;49514;43.538;-5.708;2022-12-29T22:04:17;3.45;;;1.88;;
60233;SDS011;49514;43.538;-5.708;2022-12-29T22:07:05;2.67;;;2.10;;
60233;SDS011;49514;43.538;-5.708;2022-12-29T22:09:51;2.63;;;1.92;;
60233;SDS011;49514;43.538;-5.708;2022-12-29T22:15:21;2.07;;;1.60;;
60233;SDS011;49514;43.538;-5.708;2022-12-29T22:17:52;2.10;;;1.70;;
60233;SDS011;49514;43.538;-5.708;2022-12-29T22:20:24;12.98;;;7.22;;
60233;SDS011;49514;43.538;-5.708;2022-12-29T22:22:53;16.13;;;9.52;;
60233;SDS011;49514;43.538;-5.708;2022-12-29T22:25:20;14.05;;;10.27;;
60233;SDS011;49514;43.538;-5.708;2022-12-29T22:27:48;14.55;;;10.23;;
60233;SDS011;49514;43.538;-5.708;2022-12-29T22:30:16;8.25;;;4.57;;
60233;SDS011;49514;43.538;-5.708;2022-12-29T22:32:43;6.40;;;3.40;;
60233;SDS011;49514;43.538;-5.708;2022-12-29T22:35:11;7.15;;;3.65;;
60233;SDS011;49514;43.538;-5.708;2022-12-29T22:37:39;6.80;;;4.03;;
60233;SDS011;49514;43.538;-5.708;2022-12-29T22:40:08;10.27;;;4.30;;
60233;SDS011;49514;43.538;-5.708;2022-12-29T22:42:36;10.30;;;4.88;;
60233;SDS011;49514;43.538;-5.708;2022-12-29T22:45:04;7.45;;;4.20;;
60233;SDS011;49514;43.538;-5.708;2022-12-29T22:47:31;9.95;;;4.65;;
60233;SDS011;49514;43.538;-5.708;2022-12-29T22:49:59;7.80;;;4.22;;
60233;SDS011;49514;43.538;-5.708;2022-12-29T22:52:26;7.55;;;4.40;;
60233;SDS011;49514;43.538;-5.708;2022-12-29T22:54:53;8.25;;;4.50;;
60233;SDS011;49514;43.538;-5.708;2022-12-29T22:57:21;8.93;;;4.65;;
60233;SDS011;49514;43.538;-5.708;2022-12-29T22:59:48;9.38;;;3.97;;
60233;SDS011;49514;43.538;-5.708;2022-12-29T23:02:15;6.82;;;4.30;;
60233;SDS011;49514;43.538;-5.708;2022-12-29T23:04:42;10.98;;;4.65;;
60233;SDS011;49514;43.538;-5.708;2022-12-29T23:07:09;6.90;;;4.10;;
60233;SDS011;49514;43.538;-5.708;2022-12-29T23:09:35;7.47;;;5.05;;
60233;SDS011;49514;43.538;-5.708;2022-12-29T23:12:03;9.82;;;4.95;;
60233;SDS011;49514;43.538;-5.708;2022-12-29T23:14:30;10.65;;;5.20;;
60233;SDS011;49514;43.538;-5.708;2022-12-29T23:16:56;9.52;;;4.93;;
60233;SDS011;49514;43.538;-5.708;2022-12-29T23:19:23;8.82;;;5.10;;
60233;SDS011;49514;43.538;-5.708;2022-12-29T23:21:50;8.93;;;5.30;;
60233;SDS011;49514;43.538;-5.708;2022-12-29T23:24:17;8.40;;;5.57;;
60233;SDS011;49514;43.538;-5.708;2022-12-29T23:26:44;9.85;;;5.63;;
60233;SDS011;49514;43.538;-5.708;2022-12-29T23:29:13;6.97;;;5.20;;